Time;durP1;ratioP1;P1;durP2;ratioP2;P2;SDS_P1;SDS_P2;PMS_P1;PMS_P2;Temp;Humidity;BMP_temperature;BMP_pressure;BME280_temperature;BME280_humidity;BME280_pressure;Samples;Min_cycle;Max_cycle;Signal;HPM_P1;HPM_P2
2022/04/02 00:00:07;;;;;;;0.40;0.40;;;3.00;99.90;2.10;101341.00;;;;5114895;28;20211;-68
2022/04/02 00:02:36;;;;;;;0.50;0.50;;;3.10;99.90;2.20;101325.00;;;;5116059;28;20210;-68
2022/04/02 00:05:04;;;;;;;1.00;1.00;;;3.10;99.90;1.90;101333.00;;;;5114787;28;20187;-68
2022/04/02 00:07:33;;;;;;;0.40;0.40;;;3.00;99.90;2.00;101342.00;;;;5115219;28;20236;-67
2022/04/02 00:09:59;;;;;;;0.93;0.63;;;3.00;99.90;2.00;101299.00;;;;5115969;28;20607;-67
2022/04/02 00:12:28;;;;;;;1.67;1.57;;;3.00;99.90;2.20;101304.00;;;;5113616;28;20203;-68
2022/04/02 00:14:59;;;;;;;1.07;1.07;;;3.00;99.90;2.00;101344.00;;;;5114735;28;20635;-67
2022/04/02 00:17:25;;;;;;;0.40;0.40;;;3.10;99.90;2.10;101350.00;;;;5114745;28;20222;-68
2022/04/02 00:19:54;;;;;;;0.50;0.50;;;3.00;99.90;2.20;101348.00;;;;5098147;28;20237;-68
2022/04/02 00:22:27;;;;;;;0.40;0.40;;;3.10;99.90;2.00;101347.00;;;;5097271;28;20180;-68
2022/04/02 00:24:56;;;;;;;0.40;0.40;;;3.00;99.90;2.10;101343.00;;;;5097790;28;20184;-68
2022/04/02 00:27:25;;;;;;;0.40;0.40;;;3.00;99.90;2.00;101339.00;;;;5114635;28;20187;-67
2022/04/02 00:29:53;;;;;;;0.60;0.50;;;2.90;99.90;1.80;101293.00;;;;5113623;28;20645;-68
2022/04/02 00:32:19;;;;;;;1.13;0.63;;;2.90;99.90;2.00;101345.00;;;;5113352;28;20567;-68
2022/04/02 00:34:50;;;;;;;0.60;0.60;;;2.90;99.90;2.00;101341.00;;;;5097639;28;20203;-68
2022/04/02 00:37:20;;;;;;;0.50;0.50;;;3.00;99.90;2.30;101333.00;;;;5098168;28;20262;-69
2022/04/02 00:39:46;;;;;;;0.50;0.50;;;3.00;99.90;2.10;101319.00;;;;5114144;28;20186;-68
2022/04/02 00:42:17;;;;;;;0.40;0.40;;;3.00;99.90;2.10;101328.00;;;;5115719;28;20262;-68
2022/04/02 00:44:45;;;;;;;0.50;0.50;;;3.00;99.90;2.00;101340.00;;;;5114298;28;20621;-68
2022/04/02 00:47:11;;;;;;;0.60;0.60;;;3.00;99.90;1.90;101329.00;;;;5097078;28;20245;-68
2022/04/02 00:49:37;;;;;;;0.50;0.50;;;2.90;99.90;1.80;101329.00;;;;5096207;28;20184;-68
2022/04/02 00:52:03;;;;;;;1.03;1.03;;;2.90;99.90;1.90;101330.00;;;;5114039;28;20194;-68
2022/04/02 00:54:31;;;;;;;0.40;0.40;;;2.90;99.90;1.90;101328.00;;;;5114527;28;20173;-69
2022/04/02 00:56:57;;;;;;;0.40;0.40;;;2.90;99.90;1.80;101314.00;;;;5113806;28;20180;-68
2022/04/02 00:59:25;;;;;;;0.50;0.50;;;2.90;99.90;1.90;101312.00;;;;5097042;28;20545;-68
2022/04/02 01:01:57;;;;;;;0.33;0.33;;;2.90;99.90;1.70;101322.00;;;;5096521;28;20222;-68
2022/04/02 01:04:28;;;;;;;0.40;0.40;;;2.80;99.90;2.20;101333.00;;;;5097256;28;20176;-68
2022/04/02 01:06:59;;;;;;;0.40;0.40;;;2.90;99.90;1.90;101323.00;;;;5113283;28;20208;-68
2022/04/02 01:09:27;;;;;;;0.30;0.30;;;2.80;99.90;1.80;101322.00;;;;5097503;28;20227;-68
2022/04/02 01:11:54;;;;;;;0.40;0.40;;;2.80;99.90;1.60;101327.00;;;;5114668;28;20699;-68
2022/04/02 01:14:22;;;;;;;0.40;0.40;;;2.80;99.90;1.90;101315.00;;;;5113161;28;20176;-67
2022/04/02 01:16:51;;;;;;;0.73;0.57;;;2.90;99.90;2.20;101326.00;;;;5113149;28;20184;-68
2022/04/02 01:19:19;;;;;;;1.00;1.00;;;3.00;99.90;1.90;101296.00;;;;5112926;28;20201;-68
2022/04/02 01:21:47;;;;;;;0.50;0.50;;;2.90;99.90;2.20;101341.00;;;;5113696;28;20188;-68
2022/04/02 01:24:13;;;;;;;0.40;0.40;;;3.00;99.90;2.10;101329.00;;;;5114484;28;20537;-68
2022/04/02 01:26:44;;;;;;;0.83;0.83;;;3.00;99.90;2.10;101329.00;;;;5096529;28;20180;-68
2022/04/02 01:29:10;;;;;;;1.03;1.00;;;2.90;99.90;2.20;101290.00;;;;5095566;28;20176;-67
2022/04/02 01:31:36;;;;;;;0.50;0.50;;;3.00;99.90;2.00;101281.00;;;;5096145;28;20216;-68
2022/04/02 01:34:02;;;;;;;0.40;0.40;;;3.00;99.90;2.00;101332.00;;;;5096697;28;20191;-67
2022/04/02 01:36:28;;;;;;;0.70;0.70;;;2.90;99.90;2.10;101341.00;;;;5113713;28;20635;-67
2022/04/02 01:38:54;;;;;;;0.57;0.57;;;3.00;99.90;1.90;101341.00;;;;5113047;28;20180;-67
2022/04/02 01:41:20;;;;;;;0.63;0.63;;;2.90;99.90;1.90;101340.00;;;;5112997;28;20180;-67
2022/04/02 01:43:50;;;;;;;2.77;0.90;;;2.90;99.90;2.00;101343.00;;;;5111535;28;20690;-67
2022/04/02 01:46:18;;;;;;;0.63;0.63;;;3.00;99.90;2.00;101340.00;;;;5112858;28;20180;-68
2022/04/02 01:48:48;;;;;;;0.40;0.40;;;2.90;99.90;1.90;101331.00;;;;5096406;28;20180;-68
2022/04/02 01:51:19;;;;;;;0.70;0.70;;;2.90;99.90;1.80;101333.00;;;;5113191;28;20208;-68
2022/04/02 01:53:48;;;;;;;0.77;0.77;;;2.90;99.90;1.90;101328.00;;;;5112565;28;20183;-67
2022/04/02 01:56:18;;;;;;;0.70;0.70;;;2.80;99.90;1.90;101314.00;;;;5112976;28;20172;-68
2022/04/02 01:58:44;;;;;;;0.70;0.70;;;2.90;99.90;2.30;101337.00;;;;5112465;28;20183;-68
2022/04/02 02:01:10;;;;;;;1.37;0.90;;;3.00;99.90;1.90;101332.00;;;;5095557;28;20218;-68
2022/04/02 02:03:38;;;;;;;0.40;0.40;;;3.00;99.90;2.00;101333.00;;;;5095712;28;20623;-68
2022/04/02 02:06:07;;;;;;;0.60;0.60;;;2.80;99.90;2.00;101345.00;;;;5094601;28;20179;-68
2022/04/02 02:08:34;;;;;;;0.40;0.40;;;2.80;99.90;1.70;101333.00;;;;5095712;28;20183;-68
2022/04/02 02:11:03;;;;;;;0.60;0.50;;;2.80;99.90;1.50;101289.00;;;;5112509;28;20267;-68
2022/04/02 02:13:29;;;;;;;0.40;0.40;;;2.70;99.90;1.70;101340.00;;;;5095206;28;20191;-68
2022/04/02 02:15:58;;;;;;;0.43;0.43;;;2.70;99.90;1.60;101336.00;;;;5094944;28;20180;-68
2022/04/02 02:18:23;;;;;;;0.40;0.40;;;2.70;99.90;1.80;101331.00;;;;5112693;28;20160;-68
2022/04/02 02:20:56;;;;;;;0.30;0.30;;;2.70;99.90;1.60;101332.00;;;;5095788;28;20216;-68
2022/04/02 02:23:28;;;;;;;1.40;1.30;;;2.70;99.90;1.90;101331.00;;;;5112292;28;20176;-67
2022/04/02 02:25:53;;;;;;;0.40;0.40;;;2.80;99.90;1.80;101339.00;;;;5094826;28;20176;-68
2022/04/02 02:28:25;;;;;;;1.57;0.60;;;2.80;99.90;1.90;101330.00;;;;5094722;28;20180;-67
2022/04/02 02:30:54;;;;;;;0.50;0.50;;;2.90;99.90;1.80;101340.00;;;;5112545;28;20229;-68
2022/04/02 02:36:13;;;;;;;0.63;0.63;;;2.80;99.90;1.70;101329.00;;;;5111567;28;20194;-67
2022/04/02 02:38:41;;;;;;;0.80;0.80;;;2.80;99.90;1.80;101341.00;;;;5095578;28;20210;-67
2022/04/02 02:41:10;;;;;;;0.50;0.50;;;2.80;99.90;2.00;101337.00;;;;5112392;28;20184;-67
2022/04/02 02:43:39;;;;;;;1.53;1.50;;;2.90;99.90;1.80;101312.00;;;;5111348;28;20199;-66
2022/04/02 02:46:08;;;;;;;0.50;0.50;;;2.80;99.90;1.90;101288.00;;;;5113472;28;20195;-65
2022/04/02 02:48:35;;;;;;;0.40;0.40;;;2.80;99.90;2.00;101343.00;;;;5113495;28;20175;-66
2022/04/02 02:51:05;;;;;;;0.40;0.40;;;2.80;99.90;2.10;101346.00;;;;5095117;28;20293;-66
2022/04/02 02:53:34;;;;;;;0.50;0.50;;;2.90;99.90;1.70;101341.00;;;;5095474;28;20650;-67
2022/04/02 02:56:00;;;;;;;0.60;0.60;;;2.80;99.90;2.00;101355.00;;;;5111634;28;20225;-67
2022/04/02 02:58:28;;;;;;;0.50;0.50;;;2.80;99.90;2.20;101361.00;;;;5094677;28;20184;-67
2022/04/02 03:00:54;;;;;;;0.40;0.40;;;2.90;99.90;2.10;101359.00;;;;5112141;28;20199;-67
2022/04/02 03:03:23;;;;;;;0.40;0.40;;;2.90;99.90;2.30;101351.00;;;;5094881;28;20188;-68
2022/04/02 03:05:50;;;;;;;0.40;0.40;;;3.00;99.90;2.40;101356.00;;;;5112991;28;20183;-67
2022/04/02 03:08:18;;;;;;;0.40;0.40;;;3.00;99.90;1.90;101355.00;;;;5112462;28;20278;-66
2022/04/02 03:10:44;;;;;;;0.50;0.50;;;3.00;99.90;1.70;101342.00;;;;5111949;28;20278;-66
2022/04/02 03:13:13;;;;;;;1.10;1.10;;;2.80;99.90;1.70;101320.00;;;;5111652;28;20617;-67
2022/04/02 03:15:39;;;;;;;0.60;0.60;;;2.70;99.90;2.20;101319.00;;;;5111274;28;20722;-67
2022/04/02 03:18:09;;;;;;;0.40;0.40;;;2.80;99.90;1.70;101363.00;;;;5111732;28;20196;-67
2022/04/02 03:20:37;;;;;;;0.70;0.70;;;2.70;99.90;1.60;101369.00;;;;5115893;28;20176;-67
2022/04/02 03:23:05;;;;;;;0.40;0.40;;;2.70;99.90;1.40;101366.00;;;;5115961;28;20554;-68
2022/04/02 03:25:39;;;;;;;0.93;0.93;;;2.50;99.90;1.40;101369.00;;;;5115576;28;20173;-68
2022/04/02 03:28:07;;;;;;;0.40;0.40;;;2.50;99.90;1.30;101311.00;;;;5115600;28;20191;-67
2022/04/02 03:30:38;;;;;;;0.57;0.57;;;2.40;99.90;1.50;101344.00;;;;5115824;28;20172;-68
2022/04/02 03:33:04;;;;;;;0.47;0.47;;;2.50;99.90;1.60;101375.00;;;;5098878;28;20208;-68
2022/04/02 03:35:33;;;;;;;0.70;0.70;;;2.60;99.90;1.70;101322.00;;;;5115428;28;20618;-67
2022/04/02 03:38:02;;;;;;;0.50;0.50;;;2.70;99.90;1.70;101385.00;;;;5098263;28;20191;-67
2022/04/02 03:40:35;;;;;;;0.67;0.67;;;2.70;99.90;1.70;101378.00;;;;5098513;28;20176;-67
2022/04/02 03:43:01;;;;;;;1.13;1.13;;;2.70;99.90;2.00;101379.00;;;;5114777;28;20267;-68
2022/04/02 03:45:27;;;;;;;0.40;0.40;;;2.80;99.90;1.70;101385.00;;;;5098312;28;20276;-67
2022/04/02 03:47:57;;;;;;;0.40;0.40;;;2.70;99.90;1.80;101383.00;;;;5098275;28;20263;-68
2022/04/02 03:50:28;;;;;;;0.53;0.53;;;2.70;99.90;1.90;101395.00;;;;5115362;28;20180;-68
2022/04/02 03:52:56;;;;;;;0.47;0.47;;;2.70;99.90;1.70;101388.00;;;;5097866;28;20211;-67
2022/04/02 03:55:25;;;;;;;0.30;0.30;;;2.70;99.90;1.70;101396.00;;;;5097837;28;20278;-69
2022/04/02 03:57:52;;;;;;;1.80;1.00;;;2.60;99.90;1.60;101406.00;;;;5115321;28;20215;-67
2022/04/02 04:00:26;;;;;;;0.60;0.60;;;2.60;99.90;1.70;101406.00;;;;5097872;28;20638;-67
2022/04/02 04:02:54;;;;;;;0.60;0.60;;;2.60;99.90;1.70;101403.00;;;;5098394;28;20180;-67
2022/04/02 04:05:25;;;;;;;0.73;0.73;;;2.70;99.90;1.80;101414.00;;;;5114420;28;20538;-67
2022/04/02 04:07:56;;;;;;;0.80;0.70;;;2.70;99.90;1.60;101419.00;;;;5114932;28;20200;-68
2022/04/02 04:10:22;;;;;;;0.37;0.37;;;2.70;99.90;1.80;101385.00;;;;5115913;28;20203;-68
2022/04/02 04:12:51;;;;;;;0.80;0.80;;;2.70;99.90;1.80;101444.00;;;;5114099;28;20196;-68
2022/04/02 04:15:24;;;;;;;0.40;0.40;;;2.70;99.90;2.00;101452.00;;;;5097994;28;20271;-68
2022/04/02 04:17:49;;;;;;;0.40;0.40;;;2.80;99.90;2.00;101443.00;;;;5098203;28;20213;-67
2022/04/02 04:20:25;;;;;;;0.67;0.60;;;2.80;99.90;1.90;101463.00;;;;5114563;28;20188;-67
2022/04/02 04:22:54;;;;;;;0.90;0.90;;;2.70;99.90;1.90;101407.00;;;;5098355;28;20266;-67
2022/04/02 04:25:22;;;;;;;0.67;0.60;;;2.70;99.90;1.80;101476.00;;;;5097379;28;20176;-67
2022/04/02 04:27:53;;;;;;;0.70;0.70;;;2.70;99.90;2.10;101476.00;;;;5098476;28;20619;-67
2022/04/02 04:30:22;;;;;;;0.50;0.50;;;2.80;99.90;1.90;101488.00;;;;5097723;28;20211;-67
2022/04/02 04:32:52;;;;;;;0.60;0.60;;;2.80;99.90;1.90;101485.00;;;;5114682;28;20302;-67
2022/04/02 04:35:21;;;;;;;0.50;0.50;;;2.70;99.90;1.90;101490.00;;;;5096281;28;20192;-68
2022/04/02 04:37:52;;;;;;;0.97;0.97;;;2.70;99.90;2.00;101491.00;;;;5114350;28;20638;-68
2022/04/02 04:40:21;;;;;;;1.43;0.97;;;2.70;99.90;1.80;101444.00;;;;5115103;28;20641;-67
2022/04/02 04:42:49;;;;;;;0.60;0.60;;;2.70;99.90;2.00;101507.00;;;;5097184;28;20179;-67
2022/04/02 04:45:15;;;;;;;1.43;1.33;;;2.70;99.90;1.90;101511.00;;;;5094573;28;20185;-68
2022/04/02 04:47:46;;;;;;;0.60;0.60;;;2.70;99.90;2.00;101506.00;;;;5097070;28;20237;-68
2022/04/02 04:50:14;;;;;;;0.70;0.70;;;2.70;99.90;1.80;101474.00;;;;5115417;28;20242;-68
2022/04/02 04:52:43;;;;;;;1.37;1.27;;;2.70;99.90;1.90;101516.00;;;;5113218;28;20265;-69
2022/04/02 04:55:09;;;;;;;0.37;0.37;;;2.70;99.90;1.90;101527.00;;;;5113975;28;20184;-69
2022/04/02 04:57:35;;;;;;;0.60;0.50;;;2.70;99.90;1.80;101536.00;;;;5096780;28;20191;-69
2022/04/02 05:00:05;;;;;;;1.23;1.13;;;2.70;99.90;1.90;101537.00;;;;5096746;28;20180;-70
2022/04/02 05:02:35;;;;;;;0.63;0.63;;;2.70;99.90;1.90;101539.00;;;;5113968;28;20207;-68
2022/04/02 05:05:01;;;;;;;0.70;0.70;;;2.70;99.90;1.90;101482.00;;;;5115403;28;20308;-69
2022/04/02 05:07:28;;;;;;;0.90;0.60;;;2.70;99.90;1.80;101529.00;;;;5113380;28;20545;-69
2022/04/02 05:09:54;;;;;;;0.60;0.50;;;2.60;99.90;1.90;101551.00;;;;5096523;28;20180;-67
2022/04/02 05:12:21;;;;;;;0.70;0.63;;;2.70;99.90;1.80;101543.00;;;;5095751;28;20547;-68
2022/04/02 05:14:49;;;;;;;0.53;0.53;;;2.60;99.90;2.00;101549.00;;;;5095309;28;20548;-68
2022/04/02 05:17:17;;;;;;;2.93;0.87;;;2.70;99.90;1.90;101565.00;;;;5114519;28;20184;-68
2022/04/02 05:19:45;;;;;;;0.50;0.50;;;2.70;99.90;1.80;101549.00;;;;5113187;28;20180;-67
2022/04/02 05:22:11;;;;;;;0.33;0.33;;;2.60;99.90;2.00;101555.00;;;;5094927;28;20180;-68
2022/04/02 05:24:37;;;;;;;0.37;0.37;;;2.60;99.90;1.90;101561.00;;;;5112116;28;20180;-68
2022/04/02 05:27:04;;;;;;;0.70;0.70;;;2.70;99.90;1.80;101566.00;;;;5112874;28;20179;-68
2022/04/02 05:29:30;;;;;;;0.77;0.77;;;2.60;99.90;1.90;101561.00;;;;5096527;28;20190;-67
2022/04/02 05:31:56;;;;;;;0.70;0.60;;;2.70;99.90;1.80;101563.00;;;;5096003;28;20738;-68
2022/04/02 05:34:25;;;;;;;0.30;0.30;;;2.60;99.90;1.90;101555.00;;;;5096091;28;20282;-67
2022/04/02 05:36:58;;;;;;;0.40;0.40;;;2.50;99.90;1.80;101570.00;;;;5096472;28;20184;-68
2022/04/02 05:39:27;;;;;;;0.40;0.40;;;2.50;99.90;1.80;101569.00;;;;5111752;28;20619;-68
2022/04/02 05:41:53;;;;;;;0.40;0.40;;;2.60;99.90;1.80;101568.00;;;;5095832;28;20179;-68
2022/04/02 05:44:19;;;;;;;0.77;0.77;;;2.60;99.90;1.90;101582.00;;;;5096498;28;20180;-67
2022/04/02 05:46:48;;;;;;;1.03;0.93;;;2.60;99.90;1.80;101594.00;;;;5095328;28;20188;-68
2022/04/02 05:49:17;;;;;;;0.80;0.80;;;2.60;99.90;2.00;101600.00;;;;5113374;28;20180;-67
2022/04/02 05:51:48;;;;;;;0.30;0.30;;;2.60;99.90;2.00;101592.00;;;;5113310;28;20192;-67
2022/04/02 05:54:14;;;;;;;0.63;0.47;;;2.70;99.90;1.90;101612.00;;;;5114390;28;20619;-68
2022/04/02 05:56:42;;;;;;;0.40;0.40;;;2.60;99.90;2.00;101613.00;;;;5112738;28;20176;-68
2022/04/02 05:59:13;;;;;;;0.30;0.30;;;2.70;99.90;2.10;101623.00;;;;5111120;28;20638;-68
2022/04/02 06:01:42;;;;;;;0.30;0.30;;;2.70;99.90;2.20;101623.00;;;;5112265;28;20267;-68
2022/04/02 06:04:14;;;;;;;0.40;0.40;;;2.80;99.90;2.10;101612.00;;;;5113013;28;20184;-68
2022/04/02 06:06:40;;;;;;;0.50;0.50;;;2.90;99.90;2.00;101619.00;;;;5112029;28;20202;-68
2022/04/02 06:09:12;;;;;;;0.30;0.30;;;2.80;99.90;2.40;101629.00;;;;5112660;28;20615;-68
2022/04/02 06:11:45;;;;;;;0.30;0.30;;;2.90;99.90;2.30;101634.00;;;;5112125;28;20596;-67
2022/04/02 06:14:14;;;;;;;0.50;0.43;;;3.00;99.90;2.50;101630.00;;;;5112664;28;20635;-66
2022/04/02 06:16:43;;;;;;;0.37;0.37;;;3.10;99.90;2.40;101628.00;;;;5111513;28;20237;-66
2022/04/02 06:19:17;;;;;;;0.83;0.83;;;3.10;99.90;2.70;101644.00;;;;5111987;28;20173;-66
2022/04/02 06:21:48;;;;;;;0.20;0.20;;;3.10;99.90;2.40;101641.00;;;;5112483;28;20235;-66
2022/04/02 06:24:17;;;;;;;0.40;0.40;;;3.10;99.90;2.50;101655.00;;;;5112292;28;20200;-67
2022/04/02 06:26:50;;;;;;;0.47;0.47;;;3.20;99.90;2.50;101652.00;;;;5112526;28;20176;-67
2022/04/02 06:29:19;;;;;;;0.20;0.20;;;3.20;99.90;2.70;101600.00;;;;5095188;28;20175;-68
2022/04/02 06:31:51;;;;;;;0.40;0.40;;;3.30;99.90;3.00;101660.00;;;;5112240;28;20204;-68
2022/04/02 06:34:19;;;;;;;1.37;1.27;;;3.50;99.90;2.70;101621.00;;;;5111577;28;20237;-67
2022/04/02 06:36:45;;;;;;;0.20;0.20;;;3.40;99.90;2.90;101669.00;;;;5095584;28;20220;-67
2022/04/02 06:39:17;;;;;;;1.47;1.40;;;3.50;99.90;2.80;101676.00;;;;5095438;28;20179;-66
2022/04/02 06:41:48;;;;;;;0.20;0.20;;;3.60;99.90;3.10;101625.00;;;;5096311;28;20535;-68
2022/04/02 06:44:17;;;;;;;0.40;0.40;;;3.60;99.90;4.00;101685.00;;;;5112020;28;20183;-68
2022/04/02 06:46:48;;;;;;;0.20;0.20;;;4.10;99.90;4.00;101696.00;;;;5113343;28;20188;-67
2022/04/02 06:49:17;;;;;;;0.20;0.20;;;4.30;99.90;5.00;101679.00;;;;5095068;28;20626;-67
2022/04/02 06:51:46;;;;;;;1.33;1.33;;;4.90;99.90;4.70;101715.00;;;;5112107;28;20237;-67
2022/04/02 06:54:11;;;;;;;0.20;0.20;;;5.10;99.90;4.90;101735.00;;;;5114737;28;20177;-68
2022/04/02 06:56:45;;;;;;;0.30;0.30;;;5.30;99.90;4.40;101742.00;;;;5115327;28;20181;-67
2022/04/02 06:59:13;;;;;;;0.27;0.27;;;5.10;99.90;5.00;101755.00;;;;5100003;28;20206;-66
2022/04/02 07:01:39;;;;;;;0.20;0.20;;;5.40;99.90;6.20;101758.00;;;;5116032;28;20194;-67
2022/04/02 07:04:05;;;;;;;0.43;0.43;;;6.20;99.90;5.20;101727.00;;;;5116135;28;20194;-67
2022/04/02 07:06:34;;;;;;;2.37;1.60;;;6.10;99.90;5.50;101773.00;;;;5099418;28;20176;-66
2022/04/02 07:09:05;;;;;;;0.37;0.37;;;6.10;99.90;4.60;101720.00;;;;5116413;28;20226;-65
2022/04/02 07:11:33;;;;;;;0.50;0.43;;;5.60;99.90;4.70;101765.00;;;;5117134;28;20198;-66
2022/04/02 07:14:02;;;;;;;0.10;0.10;;;5.40;99.90;4.80;101757.00;;;;5117201;28;20197;-66
2022/04/02 07:16:30;;;;;;;0.20;0.20;;;5.50;99.90;5.40;101772.00;;;;5115319;28;20716;-66
2022/04/02 07:19:00;;;;;;;2.40;1.03;;;5.80;99.90;4.80;101761.00;;;;5098972;28;20174;-66
2022/04/02 07:21:27;;;;;;;9.87;8.10;;;5.50;99.90;4.50;101725.00;;;;5098460;28;20244;-66
2022/04/02 07:23:55;;;;;;;2.13;1.90;;;5.40;99.90;4.50;101763.00;;;;5101611;28;20179;-66
2022/04/02 07:26:22;;;;;;;1.80;1.43;;;5.30;99.90;4.50;101753.00;;;;5079039;28;20181;-66
2022/04/02 07:28:48;;;;;;;2.73;1.30;;;5.20;99.90;5.50;101785.00;;;;5095421;28;20180;-66
2022/04/02 07:31:17;;;;;;;0.97;0.97;;;5.80;99.90;5.20;101780.00;;;;5078941;28;20186;-66
2022/04/02 07:33:43;;;;;;;0.87;0.87;;;5.80;99.90;5.10;101786.00;;;;5095082;28;20227;-66
2022/04/02 07:36:56;;;;;;;1.37;1.17;;;5.80;99.90;5.30;101793.00;;;;5095409;28;20229;-66
2022/04/02 07:39:54;;;;;;;1.50;1.37;;;5.90;99.90;4.80;101794.00;;;;5094466;28;20288;-66
2022/04/02 07:42:34;;;;;;;1.60;1.50;;;5.90;99.90;5.00;101802.00;;;;5096412;28;20214;-66
2022/04/02 07:45:07;;;;;;;1.27;1.27;;;5.70;99.90;5.00;101815.00;;;;5095003;28;20190;-65
2022/04/02 07:47:39;;;;;;;1.00;0.90;;;5.70;99.90;5.00;101811.00;;;;5093990;28;20267;-66
2022/04/02 07:50:13;;;;;;;1.20;0.80;;;5.80;99.90;5.00;101821.00;;;;5094629;28;20191;-66
2022/04/02 07:52:55;;;;;;;0.20;0.20;;;5.80;99.90;5.70;101828.00;;;;5095038;28;20268;-67
2022/04/02 07:55:23;;;;;;;1.13;0.47;;;6.00;99.90;5.80;101824.00;;;;5094904;28;20244;-63
2022/04/02 07:57:51;;;;;;;0.60;0.60;;;6.30;99.90;6.10;101854.00;;;;5111957;28;20237;-66
2022/04/02 08:00:20;;;;;;;0.50;0.50;;;6.70;99.90;5.80;101856.00;;;;5095845;28;20645;-67
2022/04/02 08:02:49;;;;;;;0.57;0.57;;;6.60;99.90;6.30;101872.00;;;;5095596;28;20182;-67
2022/04/02 08:05:19;;;;;;;2.33;1.63;;;6.80;99.90;5.50;101871.00;;;;5094172;28;20230;-67
2022/04/02 08:07:54;;;;;;;0.90;0.90;;;6.40;99.90;5.40;101872.00;;;;5094888;28;20190;-67
2022/04/02 08:10:26;;;;;;;0.30;0.30;;;6.10;99.90;6.10;101897.00;;;;5097475;28;20183;-68
2022/04/02 08:12:52;;;;;;;1.57;1.03;;;6.50;99.90;5.90;101791.00;;;;5104958;28;20217;-68
2022/04/02 08:15:23;;;;;;;1.20;1.20;;;6.50;99.90;6.70;101770.00;;;;5107592;28;20237;-68
2022/04/02 08:17:55;;;;;;;1.17;0.93;;;6.90;99.90;6.30;101788.00;;;;5115272;28;20184;-68
2022/04/02 08:20:25;;;;;;;2.10;1.10;;;7.10;99.90;6.00;101795.00;;;;5097441;28;20756;-68
2022/04/02 08:22:51;;;;;;;0.30;0.30;;;6.70;99.90;6.70;101793.00;;;;5097762;28;20279;-68
2022/04/02 08:25:17;;;;;;;0.10;0.10;;;6.90;99.90;7.70;101771.00;;;;5109987;28;20211;-69
2022/04/02 08:27:46;;;;;;;1.20;1.20;;;7.60;99.90;6.90;101798.00;;;;5111251;28;20180;-67
2022/04/02 08:30:18;;;;;;;0.90;0.90;;;7.60;99.90;6.50;101770.00;;;;5114290;28;20279;-68
2022/04/02 08:33:12;;;;;;;2.23;1.23;;;7.40;99.90;6.30;101820.00;;;;5097300;28;20227;-68
2022/04/02 08:35:58;;;;;;;0.30;0.30;;;7.10;99.90;6.60;101763.00;;;;5114390;28;20577;-67
2022/04/02 08:38:58;;;;;;;0.20;0.20;;;7.20;99.90;6.60;101806.00;;;;5094045;28;20181;-65
2022/04/02 08:41:36;;;;;;;0.70;0.70;;;7.20;99.90;6.80;101814.00;;;;5110148;28;20360;-67
2022/04/02 08:44:30;;;;;;;3.47;1.10;;;7.20;99.90;7.00;101816.00;;;;5094703;28;20179;-66
2022/04/02 08:47:23;;;;;;;0.30;0.30;;;7.40;99.90;6.70;101812.00;;;;5094578;28;20177;-67
2022/04/02 08:50:10;;;;;;;3.53;1.23;;;7.30;99.90;6.10;101816.00;;;;5095263;28;20172;-65
2022/04/02 08:53:14;;;;;;;1.17;0.80;;;7.00;99.90;6.20;101825.00;;;;5088710;28;20202;-65
2022/04/02 08:55:50;;;;;;;0.30;0.30;;;6.80;99.90;6.00;101813.00;;;;5093291;28;20182;-65
2022/04/02 08:58:23;;;;;;;1.27;0.80;;;6.80;99.90;5.90;101830.00;;;;5076610;28;20278;-66
2022/04/02 09:01:07;;;;;;;7.70;1.20;;;6.70;99.90;6.10;101841.00;;;;5092406;28;20180;-66
2022/04/02 09:04:01;;;;;;;1.87;1.73;;;6.70;99.90;6.10;101840.00;;;;5081001;28;20183;-65
2022/04/02 09:07:12;;;;;;;6.77;0.90;;;6.60;99.90;5.70;101836.00;;;;5094302;28;20214;-66
2022/04/02 09:10:39;;;;;;;0.70;0.70;;;6.50;99.90;5.10;101836.00;;;;5095334;28;20204;-66
2022/04/02 09:13:48;;;;;;;1.60;1.50;;;6.20;99.90;5.80;101842.00;;;;5096405;28;20561;-66
2022/04/02 09:17:00;;;;;;;3.23;0.80;;;6.30;99.90;6.00;101841.00;;;;5112125;28;20189;-67
2022/04/02 09:20:19;;;;;;;4.50;0.90;;;6.60;99.90;6.60;101841.00;;;;5112877;28;20177;-67
2022/04/02 09:23:15;;;;;;;1.17;1.13;;;7.10;99.90;6.90;101838.00;;;;5108351;28;20183;-67
2022/04/02 09:25:50;;;;;;;0.20;0.20;;;7.60;99.90;6.20;101841.00;;;;5092408;28;20241;-67
2022/04/02 09:28:48;;;;;;;0.30;0.30;;;6.80;99.90;7.20;101806.00;;;;5092303;28;20182;-67
2022/04/02 09:31:53;;;;;;;1.10;1.00;;;7.60;99.90;6.50;101849.00;;;;5105653;28;20193;-67
2022/04/02 09:35:15;;;;;;;2.67;0.97;;;7.60;99.90;6.30;101856.00;;;;5035533;28;20664;-67
2022/04/02 09:38:04;;;;;;;1.67;1.37;;;7.10;99.90;7.00;101850.00;;;;5112358;28;20187;-66
2022/04/02 09:40:48;;;;;;;0.73;0.73;;;7.40;99.90;6.90;101793.00;;;;5114058;28;20221;-66
2022/04/02 09:43:32;;;;;;;0.90;0.83;;;7.60;99.90;7.60;101847.00;;;;5112021;28;20295;-66
2022/04/02 09:46:22;;;;;;;1.20;1.10;;;7.90;99.90;7.60;101834.00;;;;5107361;28;20241;-68
2022/04/02 09:49:00;;;;;;;1.13;1.13;;;8.20;99.90;7.50;101826.00;;;;5091993;28;20185;-70
2022/04/02 09:51:41;;;;;;;0.57;0.57;;;8.10;99.90;6.50;101832.00;;;;5093042;28;20195;-71
2022/04/02 09:55:00;;;;;;;0.63;0.63;;;7.60;99.90;6.70;101837.00;;;;5097484;28;20198;-67
2022/04/02 09:57:53;;;;;;;3.77;1.23;;;7.30;99.90;7.40;101839.00;;;;5075180;28;20196;-67
2022/04/02 10:00:20;;;;;;;1.50;0.93;;;7.70;99.90;7.70;101837.00;;;;5091907;28;20639;-68
2022/04/02 10:03:08;;;;;;;1.00;1.00;;;8.10;99.90;6.90;101841.00;;;;5091075;28;20185;-68
2022/04/02 10:05:56;;;;;;;0.57;0.57;;;7.80;99.90;6.90;101802.00;;;;5091307;28;20172;-68
2022/04/02 10:08:53;;;;;;;1.23;1.00;;;7.80;99.90;6.90;101806.00;;;;5093143;28;20181;-69
2022/04/02 10:11:26;;;;;;;2.33;0.83;;;7.40;99.90;7.70;101793.00;;;;5090742;28;20196;-68
2022/04/02 10:13:54;;;;;;;0.60;0.57;;;8.00;99.90;8.00;101822.00;;;;5091358;28;20203;-68
2022/04/02 10:16:25;;;;;;;0.50;0.50;;;8.30;99.90;7.40;101824.00;;;;5074289;28;20177;-69
2022/04/02 10:18:54;;;;;;;0.20;0.20;;;8.00;99.90;6.70;101846.00;;;;5091324;28;20230;-68
2022/04/02 10:33:28;;;;;;;0.73;0.73;;;7.20;99.90;6.50;101852.00;;;;5113801;27;1270317;-66
2022/04/02 10:35:56;;;;;;;0.57;0.57;;;7.10;99.90;6.70;101839.00;;;;5131081;27;20186;-67
2022/04/02 10:38:41;;;;;;;1.90;1.80;;;7.30;99.90;6.70;101845.00;;;;5129529;28;20178;-66
2022/04/02 10:42:00;;;;;;;0.30;0.30;;;7.40;99.90;6.70;101845.00;;;;5111062;28;20619;-66
2022/04/02 10:44:58;;;;;;;0.50;0.50;;;7.20;99.90;6.80;101819.00;;;;5112099;28;20190;-68
2022/04/02 10:47:30;;;;;;;0.57;0.50;;;7.10;99.90;6.50;101846.00;;;;5130648;27;20173;-70
2022/04/02 10:50:08;;;;;;;0.30;0.30;;;7.00;99.90;7.10;101837.00;;;;5128841;28;20713;-70
2022/04/02 10:52:35;;;;;;;0.40;0.40;;;7.40;99.90;7.30;101826.00;;;;5113021;28;20279;-71
2022/04/02 10:55:03;;;;;;;0.80;0.80;;;7.70;99.90;7.00;101788.00;;;;5110269;27;20270;-70
2022/04/02 10:57:32;;;;;;;0.70;0.70;;;7.70;99.90;6.90;101825.00;;;;5108699;28;20666;-68
2022/04/02 11:00:09;;;;;;;0.20;0.20;;;7.50;99.90;6.90;101825.00;;;;5092260;28;20186;-69
2022/04/02 11:02:50;;;;;;;0.83;0.50;;;7.40;99.90;7.30;101832.00;;;;5092198;28;20238;-70
2022/04/02 11:05:17;;;;;;;0.37;0.37;;;7.70;99.90;7.40;101825.00;;;;5109907;28;20180;-69
2022/04/02 11:07:51;;;;;;;0.40;0.40;;;7.70;99.90;7.80;101823.00;;;;5108266;28;20182;-69
2022/04/02 11:10:21;;;;;;;0.40;0.40;;;8.10;99.90;7.90;101830.00;;;;5109345;28;20190;-69
2022/04/02 11:12:51;;;;;;;0.30;0.30;;;8.40;99.90;7.50;101837.00;;;;5092082;28;20208;-69
2022/04/02 11:15:24;;;;;;;0.50;0.50;;;8.20;99.90;7.60;101824.00;;;;5092612;28;20218;-69
2022/04/02 11:17:55;;;;;;;0.40;0.40;;;8.10;99.90;7.00;101846.00;;;;5110576;28;20695;-70
2022/04/02 11:20:24;;;;;;;0.87;0.70;;;7.70;99.90;7.00;101838.00;;;;5092664;28;20172;-67
2022/04/02 11:22:54;;;;;;;1.40;1.30;;;7.60;99.90;7.40;101839.00;;;;5108228;28;20203;-67
2022/04/02 11:25:25;;;;;;;0.50;0.50;;;7.80;99.90;7.30;101834.00;;;;5109670;28;20190;-67
2022/04/02 11:27:55;;;;;;;0.83;0.63;;;7.80;99.90;7.20;101833.00;;;;5108732;28;20192;-67
2022/04/02 11:30:27;;;;;;;0.30;0.30;;;7.60;99.90;7.20;101822.00;;;;5091638;28;20274;-67
2022/04/02 11:33:06;;;;;;;0.60;0.60;;;7.60;99.90;6.50;101846.00;;;;5107560;28;20221;-67
2022/04/02 11:35:40;;;;;;;1.03;0.93;;;7.30;99.90;6.40;101844.00;;;;5090914;28;20634;-67
2022/04/02 11:38:21;;;;;;;0.77;0.73;;;7.10;99.90;6.40;101872.00;;;;5106257;28;20206;-67
2022/04/02 11:40:59;;;;;;;0.93;0.77;;;7.00;99.90;6.20;101836.00;;;;5106339;28;20182;-67